sensor_id;sensor_type;location;lat;lon;timestamp;temperature;humidity
48994;DHT22;34804;49.214;12.276;2023-04-15T00:01:47;6.00;93.00
48994;DHT22;34804;49.214;12.276;2023-04-15T00:04:15;6.10;93.10
48994;DHT22;34804;49.214;12.276;2023-04-15T00:06:42;6.00;92.90
48994;DHT22;34804;49.214;12.276;2023-04-15T00:09:09;6.00;93.00
48994;DHT22;34804;49.214;12.276;2023-04-15T00:11:35;6.00;93.00
48994;DHT22;34804;49.214;12.276;2023-04-15T00:14:03;6.00;92.90
48994;DHT22;34804;49.214;12.276;2023-04-15T00:16:30;6.00;92.60
48994;DHT22;34804;49.214;12.276;2023-04-15T00:18:57;6.10;92.50
48994;DHT22;34804;49.214;12.276;2023-04-15T00:21:24;6.10;92.60
48994;DHT22;34804;49.214;12.276;2023-04-15T00:23:53;6.00;92.60
48994;DHT22;34804;49.214;12.276;2023-04-15T00:26:20;6.00;92.40
48994;DHT22;34804;49.214;12.276;2023-04-15T00:28:49;6.00;92.20
48994;DHT22;34804;49.214;12.276;2023-04-15T00:31:16;6.10;92.30
48994;DHT22;34804;49.214;12.276;2023-04-15T00:33:43;6.10;92.10
48994;DHT22;34804;49.214;12.276;2023-04-15T00:36:10;6.10;92.20
48994;DHT22;34804;49.214;12.276;2023-04-15T00:38:37;6.10;91.80
48994;DHT22;34804;49.214;12.276;2023-04-15T00:41:04;6.10;91.60
48994;DHT22;34804;49.214;12.276;2023-04-15T00:43:31;6.10;91.40
48994;DHT22;34804;49.214;12.276;2023-04-15T00:45:58;6.10;91.20
48994;DHT22;34804;49.214;12.276;2023-04-15T00:48:25;6.10;91.30
48994;DHT22;34804;49.214;12.276;2023-04-15T00:50:54;6.10;91.30
48994;DHT22;34804;49.214;12.276;2023-04-15T00:53:21;6.10;91.60
48994;DHT22;34804;49.214;12.276;2023-04-15T00:55:48;6.10;91.30
48994;DHT22;34804;49.214;12.276;2023-04-15T00:58:15;6.10;91.70
48994;DHT22;34804;49.214;12.276;2023-04-15T01:00:43;6.10;91.40
48994;DHT22;34804;49.214;12.276;2023-04-15T01:03:10;6.10;91.50
48994;DHT22;34804;49.214;12.276;2023-04-15T01:05:37;6.10;91.50
48994;DHT22;34804;49.214;12.276;2023-04-15T01:08:05;6.10;91.70
48994;DHT22;34804;49.214;12.276;2023-04-15T01:10:32;6.10;91.70
48994;DHT22;34804;49.214;12.276;2023-04-15T01:12:59;6.10;91.70
48994;DHT22;34804;49.214;12.276;2023-04-15T01:15:26;6.10;91.80
48994;DHT22;34804;49.214;12.276;2023-04-15T01:17:57;6.10;92.00
48994;DHT22;34804;49.214;12.276;2023-04-15T01:20:24;6.10;91.90
48994;DHT22;34804;49.214;12.276;2023-04-15T01:22:53;6.10;91.90
48994;DHT22;34804;49.214;12.276;2023-04-15T01:25:32;6.00;92.10
48994;DHT22;34804;49.214;12.276;2023-04-15T01:28:00;6.10;92.30
48994;DHT22;34804;49.214;12.276;2023-04-15T01:30:26;6.10;92.30
48994;DHT22;34804;49.214;12.276;2023-04-15T01:32:53;6.10;92.40
48994;DHT22;34804;49.214;12.276;2023-04-15T01:35:22;6.10;92.40
48994;DHT22;34804;49.214;12.276;2023-04-15T01:37:49;6.10;92.30
48994;DHT22;34804;49.214;12.276;2023-04-15T01:40:16;6.10;92.40
48994;DHT22;34804;49.214;12.276;2023-04-15T01:42:43;6.10;91.90
48994;DHT22;34804;49.214;12.276;2023-04-15T01:45:11;6.10;91.80
48994;DHT22;34804;49.214;12.276;2023-04-15T01:47:40;6.10;92.10
48994;DHT22;34804;49.214;12.276;2023-04-15T01:50:07;6.10;92.20
48994;DHT22;34804;49.214;12.276;2023-04-15T01:52:34;6.10;92.20
48994;DHT22;34804;49.214;12.276;2023-04-15T01:55:01;6.00;92.10
48994;DHT22;34804;49.214;12.276;2023-04-15T01:57:28;6.10;92.00
48994;DHT22;34804;49.214;12.276;2023-04-15T01:59:55;6.00;91.90
48994;DHT22;34804;49.214;12.276;2023-04-15T02:02:23;6.10;92.10
48994;DHT22;34804;49.214;12.276;2023-04-15T02:04:50;6.00;92.20
48994;DHT22;34804;49.214;12.276;2023-04-15T02:07:17;6.10;92.10
48994;DHT22;34804;49.214;12.276;2023-04-15T02:09:45;6.10;92.30
48994;DHT22;34804;49.214;12.276;2023-04-15T02:12:13;6.10;92.00
48994;DHT22;34804;49.214;12.276;2023-04-15T02:14:40;6.00;92.20
48994;DHT22;34804;49.214;12.276;2023-04-15T02:17:08;6.00;92.20
48994;DHT22;34804;49.214;12.276;2023-04-15T02:19:36;6.00;92.10
48994;DHT22;34804;49.214;12.276;2023-04-15T02:22:03;6.00;91.60
48994;DHT22;34804;49.214;12.276;2023-04-15T02:24:30;6.00;92.20
48994;DHT22;34804;49.214;12.276;2023-04-15T02:26:57;6.10;92.20
48994;DHT22;34804;49.214;12.276;2023-04-15T02:29:24;6.10;92.40
48994;DHT22;34804;49.214;12.276;2023-04-15T02:31:51;6.00;92.40
48994;DHT22;34804;49.214;12.276;2023-04-15T02:34:17;6.00;92.70
48994;DHT22;34804;49.214;12.276;2023-04-15T02:36:44;6.00;92.60
48994;DHT22;34804;49.214;12.276;2023-04-15T02:39:14;6.00;92.60
48994;DHT22;34804;49.214;12.276;2023-04-15T02:41:42;6.00;92.70
48994;DHT22;34804;49.214;12.276;2023-04-15T02:44:13;6.00;92.70
48994;DHT22;34804;49.214;12.276;2023-04-15T02:46:39;6.00;92.90
48994;DHT22;34804;49.214;12.276;2023-04-15T02:49:07;5.90;92.90
48994;DHT22;34804;49.214;12.276;2023-04-15T02:51:34;5.90;93.20
48994;DHT22;34804;49.214;12.276;2023-04-15T02:54:01;5.90;93.20
48994;DHT22;34804;49.214;12.276;2023-04-15T02:56:28;5.90;93.30
48994;DHT22;34804;49.214;12.276;2023-04-15T02:58:56;5.90;93.40
48994;DHT22;34804;49.214;12.276;2023-04-15T03:01:24;5.90;93.40
48994;DHT22;34804;49.214;12.276;2023-04-15T03:03:51;5.80;93.30
48994;DHT22;34804;49.214;12.276;2023-04-15T03:06:18;5.90;93.30
48994;DHT22;34804;49.214;12.276;2023-04-15T03:08:45;5.90;93.20
48994;DHT22;34804;49.214;12.276;2023-04-15T03:11:14;5.90;93.10
48994;DHT22;34804;49.214;12.276;2023-04-15T03:13:41;5.90;93.30
48994;DHT22;34804;49.214;12.276;2023-04-15T03:16:09;5.80;93.40
48994;DHT22;34804;49.214;12.276;2023-04-15T03:18:36;5.80;93.50
48994;DHT22;34804;49.214;12.276;2023-04-15T03:21:03;5.80;93.70
48994;DHT22;34804;49.214;12.276;2023-04-15T03:23:30;5.80;93.70
48994;DHT22;34804;49.214;12.276;2023-04-15T03:26:01;5.80;93.80
48994;DHT22;34804;49.214;12.276;2023-04-15T03:28:28;5.80;93.80
48994;DHT22;34804;49.214;12.276;2023-04-15T03:30:56;5.80;93.70
48994;DHT22;34804;49.214;12.276;2023-04-15T03:33:23;5.90;93.70
48994;DHT22;34804;49.214;12.276;2023-04-15T03:35:50;5.80;93.60
48994;DHT22;34804;49.214;12.276;2023-04-15T03:38:17;5.80;93.70
48994;DHT22;34804;49.214;12.276;2023-04-15T03:40:45;5.80;93.80
48994;DHT22;34804;49.214;12.276;2023-04-15T03:43:13;5.80;93.70
48994;DHT22;34804;49.214;12.276;2023-04-15T03:45:40;5.80;93.70
48994;DHT22;34804;49.214;12.276;2023-04-15T03:48:06;5.80;93.70
48994;DHT22;34804;49.214;12.276;2023-04-15T03:50:43;5.80;93.80
48994;DHT22;34804;49.214;12.276;2023-04-15T03:53:10;5.80;93.70
48994;DHT22;34804;49.214;12.276;2023-04-15T03:55:37;5.80;93.80
48994;DHT22;34804;49.214;12.276;2023-04-15T03:58:04;5.80;93.90
48994;DHT22;34804;49.214;12.276;2023-04-15T04:00:31;5.80;93.90
48994;DHT22;34804;49.214;12.276;2023-04-15T04:02:58;5.80;94.10
48994;DHT22;34804;49.214;12.276;2023-04-15T04:05:26;5.80;94.20
48994;DHT22;34804;49.214;12.276;2023-04-15T04:07:53;5.80;94.20
48994;DHT22;34804;49.214;12.276;2023-04-15T04:10:19;5.80;94.10
48994;DHT22;34804;49.214;12.276;2023-04-15T04:12:46;5.80;93.90
48994;DHT22;34804;49.214;12.276;2023-04-15T04:15:13;5.80;93.80
48994;DHT22;34804;49.214;12.276;2023-04-15T04:17:40;5.80;93.80
48994;DHT22;34804;49.214;12.276;2023-04-15T04:20:07;5.80;93.90
48994;DHT22;34804;49.214;12.276;2023-04-15T04:22:40;5.80;93.50
48994;DHT22;34804;49.214;12.276;2023-04-15T04:25:08;5.80;93.60
48994;DHT22;34804;49.214;12.276;2023-04-15T04:27:38;5.80;93.70
48994;DHT22;34804;49.214;12.276;2023-04-15T04:30:05;5.80;93.70
48994;DHT22;34804;49.214;12.276;2023-04-15T04:32:32;5.80;93.90
48994;DHT22;34804;49.214;12.276;2023-04-15T04:34:59;5.80;94.20
48994;DHT22;34804;49.214;12.276;2023-04-15T04:37:26;5.70;94.10
48994;DHT22;34804;49.214;12.276;2023-04-15T04:39:53;5.80;94.00
48994;DHT22;34804;49.214;12.276;2023-04-15T04:42:20;5.70;94.00
48994;DHT22;34804;49.214;12.276;2023-04-15T04:44:47;5.80;93.80
48994;DHT22;34804;49.214;12.276;2023-04-15T04:47:14;5.80;93.80
48994;DHT22;34804;49.214;12.276;2023-04-15T04:49:41;5.80;93.90
48994;DHT22;34804;49.214;12.276;2023-04-15T04:52:08;5.80;93.90
48994;DHT22;34804;49.214;12.276;2023-04-15T04:54:35;5.70;94.00
48994;DHT22;34804;49.214;12.276;2023-04-15T04:57:01;5.70;94.20
48994;DHT22;34804;49.214;12.276;2023-04-15T04:59:29;5.70;94.20
48994;DHT22;34804;49.214;12.276;2023-04-15T05:01:56;5.80;94.10
48994;DHT22;34804;49.214;12.276;2023-04-15T05:04:23;5.70;94.10
48994;DHT22;34804;49.214;12.276;2023-04-15T05:06:49;5.80;94.20
48994;DHT22;34804;49.214;12.276;2023-04-15T05:09:16;5.70;93.90
48994;DHT22;34804;49.214;12.276;2023-04-15T05:11:44;5.70;93.90
48994;DHT22;34804;49.214;12.276;2023-04-15T05:14:11;5.70;93.90
48994;DHT22;34804;49.214;12.276;2023-04-15T05:16:38;5.70;93.90
48994;DHT22;34804;49.214;12.276;2023-04-15T05:19:05;5.60;93.90
48994;DHT22;34804;49.214;12.276;2023-04-15T05:21:31;5.60;94.10
48994;DHT22;34804;49.214;12.276;2023-04-15T05:23:59;5.70;94.00
48994;DHT22;34804;49.214;12.276;2023-04-15T05:26:26;5.60;93.40
48994;DHT22;34804;49.214;12.276;2023-04-15T05:28:53;5.60;92.90
48994;DHT22;34804;49.214;12.276;2023-04-15T05:31:20;5.50;92.70
48994;DHT22;34804;49.214;12.276;2023-04-15T05:33:47;5.50;92.80
48994;DHT22;34804;49.214;12.276;2023-04-15T05:36:14;5.60;93.00
48994;DHT22;34804;49.214;12.276;2023-04-15T05:38:41;5.60;92.50
48994;DHT22;34804;49.214;12.276;2023-04-15T05:41:08;5.60;92.90
48994;DHT22;34804;49.214;12.276;2023-04-15T05:43:35;5.50;92.80
48994;DHT22;34804;49.214;12.276;2023-04-15T05:46:02;5.50;92.90
48994;DHT22;34804;49.214;12.276;2023-04-15T05:48:29;5.50;93.10
48994;DHT22;34804;49.214;12.276;2023-04-15T05:50:56;5.50;93.10
48994;DHT22;34804;49.214;12.276;2023-04-15T05:53:23;5.50;93.00
48994;DHT22;34804;49.214;12.276;2023-04-15T05:55:50;5.50;92.70
48994;DHT22;34804;49.214;12.276;2023-04-15T05:58:17;5.50;91.90
48994;DHT22;34804;49.214;12.276;2023-04-15T06:00:44;5.50;92.60
48994;DHT22;34804;49.214;12.276;2023-04-15T06:03:11;5.50;92.50
48994;DHT22;34804;49.214;12.276;2023-04-15T06:05:39;5.50;92.90
48994;DHT22;34804;49.214;12.276;2023-04-15T06:08:06;5.50;93.10
48994;DHT22;34804;49.214;12.276;2023-04-15T06:10:34;5.50;93.40
48994;DHT22;34804;49.214;12.276;2023-04-15T06:13:03;5.50;93.80
48994;DHT22;34804;49.214;12.276;2023-04-15T06:15:30;5.60;93.80
48994;DHT22;34804;49.214;12.276;2023-04-15T06:17:58;5.70;93.70
48994;DHT22;34804;49.214;12.276;2023-04-15T06:20:25;5.60;93.00
48994;DHT22;34804;49.214;12.276;2023-04-15T06:22:52;5.60;93.00
48994;DHT22;34804;49.214;12.276;2023-04-15T06:25:19;5.60;93.20
48994;DHT22;34804;49.214;12.276;2023-04-15T06:27:46;5.60;93.00
48994;DHT22;34804;49.214;12.276;2023-04-15T06:30:13;5.60;93.40
48994;DHT22;34804;49.214;12.276;2023-04-15T06:32:40;5.70;93.40
48994;DHT22;34804;49.214;12.276;2023-04-15T06:35:08;5.70;93.40
48994;DHT22;34804;49.214;12.276;2023-04-15T06:37:35;5.70;93.60
48994;DHT22;34804;49.214;12.276;2023-04-15T06:40:02;5.80;93.90
48994;DHT22;34804;49.214;12.276;2023-04-15T06:42:30;5.80;93.50
48994;DHT22;34804;49.214;12.276;2023-04-15T06:44:57;5.80;93.70
48994;DHT22;34804;49.214;12.276;2023-04-15T06:47:24;5.80;93.50
48994;DHT22;34804;49.214;12.276;2023-04-15T06:49:52;5.80;93.40
48994;DHT22;34804;49.214;12.276;2023-04-15T06:52:19;5.80;93.00
48994;DHT22;34804;49.214;12.276;2023-04-15T06:54:45;5.80;92.90
48994;DHT22;34804;49.214;12.276;2023-04-15T06:57:13;5.80;93.00
48994;DHT22;34804;49.214;12.276;2023-04-15T06:59:39;5.80;92.80
48994;DHT22;34804;49.214;12.276;2023-04-15T07:02:10;5.80;92.50
48994;DHT22;34804;49.214;12.276;2023-04-15T07:04:38;5.80;92.90
48994;DHT22;34804;49.214;12.276;2023-04-15T07:07:06;5.90;93.00
48994;DHT22;34804;49.214;12.276;2023-04-15T07:09:33;6.00;92.90
48994;DHT22;34804;49.214;12.276;2023-04-15T07:12:00;5.90;92.50
48994;DHT22;34804;49.214;12.276;2023-04-15T07:14:28;6.00;92.60
48994;DHT22;34804;49.214;12.276;2023-04-15T07:16:56;6.00;92.40
48994;DHT22;34804;49.214;12.276;2023-04-15T07:19:23;6.00;91.80
48994;DHT22;34804;49.214;12.276;2023-04-15T07:21:50;5.90;91.90
48994;DHT22;34804;49.214;12.276;2023-04-15T07:24:17;6.00;92.10
48994;DHT22;34804;49.214;12.276;2023-04-15T07:26:45;6.00;91.70
48994;DHT22;34804;49.214;12.276;2023-04-15T07:29:12;6.10;91.60
48994;DHT22;34804;49.214;12.276;2023-04-15T07:31:39;6.00;90.50
48994;DHT22;34804;49.214;12.276;2023-04-15T07:34:07;6.00;90.50
48994;DHT22;34804;49.214;12.276;2023-04-15T07:36:34;5.90;90.20
48994;DHT22;34804;49.214;12.276;2023-04-15T07:39:02;5.90;90.30
48994;DHT22;34804;49.214;12.276;2023-04-15T07:41:30;5.90;91.20
48994;DHT22;34804;49.214;12.276;2023-04-15T07:43:57;5.90;91.40
48994;DHT22;34804;49.214;12.276;2023-04-15T07:46:24;5.90;91.20
48994;DHT22;34804;49.214;12.276;2023-04-15T07:48:53;5.90;91.90
48994;DHT22;34804;49.214;12.276;2023-04-15T07:51:20;5.90;91.50
48994;DHT22;34804;49.214;12.276;2023-04-15T07:53:48;5.90;91.50
48994;DHT22;34804;49.214;12.276;2023-04-15T07:56:16;5.80;91.60
48994;DHT22;34804;49.214;12.276;2023-04-15T07:58:43;5.80;91.80
48994;DHT22;34804;49.214;12.276;2023-04-15T08:01:09;5.70;91.60
48994;DHT22;34804;49.214;12.276;2023-04-15T08:03:37;5.70;92.10
48994;DHT22;34804;49.214;12.276;2023-04-15T08:06:05;5.80;91.80
48994;DHT22;34804;49.214;12.276;2023-04-15T08:08:32;5.70;92.10
48994;DHT22;34804;49.214;12.276;2023-04-15T08:10:59;5.70;92.10
48994;DHT22;34804;49.214;12.276;2023-04-15T08:13:26;5.70;92.20
48994;DHT22;34804;49.214;12.276;2023-04-15T08:16:16;5.80;92.50
48994;DHT22;34804;49.214;12.276;2023-04-15T08:18:45;5.70;92.60
48994;DHT22;34804;49.214;12.276;2023-04-15T08:21:12;5.70;92.70
48994;DHT22;34804;49.214;12.276;2023-04-15T08:23:40;5.80;92.60
48994;DHT22;34804;49.214;12.276;2023-04-15T08:26:07;5.80;92.60
48994;DHT22;34804;49.214;12.276;2023-04-15T08:28:36;5.70;91.80
48994;DHT22;34804;49.214;12.276;2023-04-15T08:31:03;5.80;92.30
48994;DHT22;34804;49.214;12.276;2023-04-15T08:33:30;5.80;92.20
48994;DHT22;34804;49.214;12.276;2023-04-15T08:35:56;5.90;92.30
48994;DHT22;34804;49.214;12.276;2023-04-15T08:38:23;5.90;92.20
48994;DHT22;34804;49.214;12.276;2023-04-15T08:40:51;6.00;92.30
48994;DHT22;34804;49.214;12.276;2023-04-15T08:43:23;6.10;92.10
48994;DHT22;34804;49.214;12.276;2023-04-15T08:45:52;6.30;92.30
48994;DHT22;34804;49.214;12.276;2023-04-15T08:48:20;6.30;91.80
48994;DHT22;34804;49.214;12.276;2023-04-15T08:50:50;6.30;91.90
48994;DHT22;34804;49.214;12.276;2023-04-15T08:53:17;6.40;91.50
48994;DHT22;34804;49.214;12.276;2023-04-15T08:55:46;6.40;91.40
48994;DHT22;34804;49.214;12.276;2023-04-15T08:58:15;6.40;91.00
48994;DHT22;34804;49.214;12.276;2023-04-15T09:00:42;6.30;91.20
48994;DHT22;34804;49.214;12.276;2023-04-15T09:03:10;6.40;91.90
48994;DHT22;34804;49.214;12.276;2023-04-15T09:05:37;6.40;92.00
48994;DHT22;34804;49.214;12.276;2023-04-15T09:08:04;6.30;91.30
48994;DHT22;34804;49.214;12.276;2023-04-15T09:10:32;6.40;91.90
48994;DHT22;34804;49.214;12.276;2023-04-15T09:13:00;6.40;91.90
48994;DHT22;34804;49.214;12.276;2023-04-15T09:15:27;6.20;91.60
48994;DHT22;34804;49.214;12.276;2023-04-15T09:17:55;6.20;92.30
48994;DHT22;34804;49.214;12.276;2023-04-15T09:20:23;6.20;92.00
48994;DHT22;34804;49.214;12.276;2023-04-15T09:22:50;6.20;91.90
48994;DHT22;34804;49.214;12.276;2023-04-15T09:27:56;6.10;92.40
48994;DHT22;34804;49.214;12.276;2023-04-15T09:30:24;6.10;91.90
48994;DHT22;34804;49.214;12.276;2023-04-15T09:32:56;6.20;92.40
48994;DHT22;34804;49.214;12.276;2023-04-15T09:35:24;6.30;92.40
48994;DHT22;34804;49.214;12.276;2023-04-15T09:38:06;6.50;92.30
48994;DHT22;34804;49.214;12.276;2023-04-15T09:40:40;6.50;91.50
48994;DHT22;34804;49.214;12.276;2023-04-15T09:43:09;6.60;91.90
48994;DHT22;34804;49.214;12.276;2023-04-15T09:45:49;6.70;91.20
48994;DHT22;34804;49.214;12.276;2023-04-15T09:48:24;6.80;91.40
48994;DHT22;34804;49.214;12.276;2023-04-15T09:50:57;6.80;90.70
48994;DHT22;34804;49.214;12.276;2023-04-15T09:53:24;6.80;90.90
48994;DHT22;34804;49.214;12.276;2023-04-15T09:55:53;6.70;91.00
48994;DHT22;34804;49.214;12.276;2023-04-15T09:58:23;6.80;91.10
48994;DHT22;34804;49.214;12.276;2023-04-15T10:00:51;6.60;91.10
48994;DHT22;34804;49.214;12.276;2023-04-15T10:05:52;6.80;91.00
48994;DHT22;34804;49.214;12.276;2023-04-15T10:08:21;6.80;91.10
48994;DHT22;34804;49.214;12.276;2023-04-15T10:10:49;6.70;90.80
48994;DHT22;34804;49.214;12.276;2023-04-15T10:13:23;6.50;90.90
48994;DHT22;34804;49.214;12.276;2023-04-15T10:15:59;6.60;90.90
48994;DHT22;34804;49.214;12.276;2023-04-15T10:18:27;6.60;91.50
48994;DHT22;34804;49.214;12.276;2023-04-15T10:20:54;6.60;90.90
48994;DHT22;34804;49.214;12.276;2023-04-15T10:23:22;6.80;91.80
48994;DHT22;34804;49.214;12.276;2023-04-15T10:25:51;6.80;91.60
48994;DHT22;34804;49.214;12.276;2023-04-15T10:28:20;7.10;91.20
48994;DHT22;34804;49.214;12.276;2023-04-15T10:30:51;7.10;90.90
48994;DHT22;34804;49.214;12.276;2023-04-15T10:33:22;7.10;90.60
48994;DHT22;34804;49.214;12.276;2023-04-15T10:35:50;7.00;90.50
48994;DHT22;34804;49.214;12.276;2023-04-15T10:41:25;6.80;90.50
48994;DHT22;34804;49.214;12.276;2023-04-15T10:43:55;6.70;91.10
48994;DHT22;34804;49.214;12.276;2023-04-15T10:46:43;6.70;90.20
48994;DHT22;34804;49.214;12.276;2023-04-15T10:49:15;6.80;90.70
48994;DHT22;34804;49.214;12.276;2023-04-15T10:51:45;6.60;90.60
48994;DHT22;34804;49.214;12.276;2023-04-15T10:54:14;6.60;91.20
48994;DHT22;34804;49.214;12.276;2023-04-15T10:56:45;6.70;91.50
48994;DHT22;34804;49.214;12.276;2023-04-15T10:59:16;6.60;90.60
48994;DHT22;34804;49.214;12.276;2023-04-15T11:01:55;6.60;91.40
48994;DHT22;34804;49.214;12.276;2023-04-15T11:04:55;6.70;91.20
48994;DHT22;34804;49.214;12.276;2023-04-15T11:10:02;6.80;91.50
48994;DHT22;34804;49.214;12.276;2023-04-15T11:12:35;6.80;90.90
48994;DHT22;34804;49.214;12.276;2023-04-15T11:17:54;6.80;90.90
48994;DHT22;34804;49.214;12.276;2023-04-15T11:20:22;6.80;91.30
48994;DHT22;34804;49.214;12.276;2023-04-15T11:22:52;6.90;91.30
48994;DHT22;34804;49.214;12.276;2023-04-15T11:25:39;6.80;90.40
48994;DHT22;34804;49.214;12.276;2023-04-15T11:28:06;6.80;90.30
48994;DHT22;34804;49.214;12.276;2023-04-15T11:30:34;6.90;90.50
48994;DHT22;34804;49.214;12.276;2023-04-15T11:33:10;6.90;91.30
48994;DHT22;34804;49.214;12.276;2023-04-15T11:35:41;7.00;90.70
48994;DHT22;34804;49.214;12.276;2023-04-15T11:38:10;7.10;90.90
48994;DHT22;34804;49.214;12.276;2023-04-15T11:40:37;7.10;91.30
48994;DHT22;34804;49.214;12.276;2023-04-15T11:43:15;7.10;90.90
48994;DHT22;34804;49.214;12.276;2023-04-15T11:45:56;7.10;91.20
48994;DHT22;34804;49.214;12.276;2023-04-15T11:48:31;7.00;90.90
48994;DHT22;34804;49.214;12.276;2023-04-15T11:51:03;6.80;90.90
48994;DHT22;34804;49.214;12.276;2023-04-15T11:53:46;6.90;91.80
48994;DHT22;34804;49.214;12.276;2023-04-15T11:56:21;7.10;91.80
48994;DHT22;34804;49.214;12.276;2023-04-15T11:58:55;7.00;90.80
48994;DHT22;34804;49.214;12.276;2023-04-15T12:01:33;7.10;91.20
48994;DHT22;34804;49.214;12.276;2023-04-15T12:04:00;7.30;91.50
48994;DHT22;34804;49.214;12.276;2023-04-15T12:06:32;7.20;90.40
48994;DHT22;34804;49.214;12.276;2023-04-15T12:09:14;7.10;89.80
48994;DHT22;34804;49.214;12.276;2023-04-15T12:11:47;7.00;90.20
48994;DHT22;34804;49.214;12.276;2023-04-15T12:14:28;7.10;90.90
48994;DHT22;34804;49.214;12.276;2023-04-15T12:16:59;7.10;90.30
48994;DHT22;34804;49.214;12.276;2023-04-15T12:22:00;7.10;91.40
48994;DHT22;34804;49.214;12.276;2023-04-15T12:24:30;7.20;91.50
48994;DHT22;34804;49.214;12.276;2023-04-15T12:27:05;7.20;90.70
48994;DHT22;34804;49.214;12.276;2023-04-15T12:29:34;7.20;90.20
48994;DHT22;34804;49.214;12.276;2023-04-15T12:32:08;7.30;90.50
48994;DHT22;34804;49.214;12.276;2023-04-15T12:34:37;7.30;90.00
48994;DHT22;34804;49.214;12.276;2023-04-15T12:37:08;7.40;90.90
48994;DHT22;34804;49.214;12.276;2023-04-15T12:39:37;7.50;89.80
48994;DHT22;34804;49.214;12.276;2023-04-15T12:42:04;7.50;89.20
48994;DHT22;34804;49.214;12.276;2023-04-15T12:44:32;7.40;89.10
48994;DHT22;34804;49.214;12.276;2023-04-15T12:46:59;7.30;89.70
48994;DHT22;34804;49.214;12.276;2023-04-15T12:49:28;7.30;89.90
48994;DHT22;34804;49.214;12.276;2023-04-15T12:51:56;7.30;90.00
48994;DHT22;34804;49.214;12.276;2023-04-15T12:54:23;7.30;90.00
48994;DHT22;34804;49.214;12.276;2023-04-15T12:56:50;7.30;90.10
48994;DHT22;34804;49.214;12.276;2023-04-15T12:59:18;7.30;90.50
48994;DHT22;34804;49.214;12.276;2023-04-15T13:01:46;7.30;90.30
48994;DHT22;34804;49.214;12.276;2023-04-15T13:04:14;7.20;90.20
48994;DHT22;34804;49.214;12.276;2023-04-15T13:06:42;7.20;89.90
48994;DHT22;34804;49.214;12.276;2023-04-15T13:09:09;7.10;90.40
48994;DHT22;34804;49.214;12.276;2023-04-15T13:11:36;7.20;90.20
48994;DHT22;34804;49.214;12.276;2023-04-15T13:14:05;7.10;90.20
48994;DHT22;34804;49.214;12.276;2023-04-15T13:16:33;7.20;90.40
48994;DHT22;34804;49.214;12.276;2023-04-15T13:19:01;7.20;90.10
48994;DHT22;34804;49.214;12.276;2023-04-15T13:21:29;7.20;90.40
48994;DHT22;34804;49.214;12.276;2023-04-15T13:23:58;7.30;90.70
48994;DHT22;34804;49.214;12.276;2023-04-15T13:26:25;7.30;90.00
48994;DHT22;34804;49.214;12.276;2023-04-15T13:28:52;7.40;90.60
48994;DHT22;34804;49.214;12.276;2023-04-15T13:31:20;7.40;90.80
48994;DHT22;34804;49.214;12.276;2023-04-15T13:33:47;7.50;90.40
48994;DHT22;34804;49.214;12.276;2023-04-15T13:36:14;7.40;90.40
48994;DHT22;34804;49.214;12.276;2023-04-15T13:38:41;7.30;90.30
48994;DHT22;34804;49.214;12.276;2023-04-15T13:41:08;7.30;90.50
48994;DHT22;34804;49.214;12.276;2023-04-15T13:43:35;7.30;90.20
48994;DHT22;34804;49.214;12.276;2023-04-15T13:46:02;7.30;90.60
48994;DHT22;34804;49.214;12.276;2023-04-15T13:48:29;7.30;90.60
48994;DHT22;34804;49.214;12.276;2023-04-15T13:50:56;7.20;91.10
48994;DHT22;34804;49.214;12.276;2023-04-15T13:53:23;7.30;91.30
48994;DHT22;34804;49.214;12.276;2023-04-15T13:56:06;7.20;90.80
48994;DHT22;34804;49.214;12.276;2023-04-15T13:58:33;7.30;91.20
48994;DHT22;34804;49.214;12.276;2023-04-15T14:01:00;7.30;90.90
48994;DHT22;34804;49.214;12.276;2023-04-15T14:03:30;7.40;91.20
48994;DHT22;34804;49.214;12.276;2023-04-15T14:05:57;7.50;91.40
48994;DHT22;34804;49.214;12.276;2023-04-15T14:08:25;7.50;91.30
48994;DHT22;34804;49.214;12.276;2023-04-15T14:10:52;7.50;90.40
48994;DHT22;34804;49.214;12.276;2023-04-15T14:13:18;7.50;90.70
48994;DHT22;34804;49.214;12.276;2023-04-15T14:15:45;7.60;90.70
48994;DHT22;34804;49.214;12.276;2023-04-15T14:18:13;7.60;90.60
48994;DHT22;34804;49.214;12.276;2023-04-15T14:20:39;7.60;90.40
48994;DHT22;34804;49.214;12.276;2023-04-15T14:23:06;7.60;90.30
48994;DHT22;34804;49.214;12.276;2023-04-15T14:25:33;7.70;90.50
48994;DHT22;34804;49.214;12.276;2023-04-15T14:28:01;7.70;90.00
48994;DHT22;34804;49.214;12.276;2023-04-15T14:30:29;7.80;89.90
48994;DHT22;34804;49.214;12.276;2023-04-15T14:32:56;7.80;90.50
48994;DHT22;34804;49.214;12.276;2023-04-15T14:35:23;7.90;90.10
48994;DHT22;34804;49.214;12.276;2023-04-15T14:37:52;7.90;89.80
48994;DHT22;34804;49.214;12.276;2023-04-15T14:40:19;7.90;89.40
48994;DHT22;34804;49.214;12.276;2023-04-15T14:42:46;8.00;89.90
48994;DHT22;34804;49.214;12.276;2023-04-15T14:45:13;8.00;88.90
48994;DHT22;34804;49.214;12.276;2023-04-15T14:47:40;8.00;88.90
48994;DHT22;34804;49.214;12.276;2023-04-15T14:50:07;8.00;89.40
48994;DHT22;34804;49.214;12.276;2023-04-15T14:52:34;8.00;88.80
48994;DHT22;34804;49.214;12.276;2023-04-15T14:55:09;8.10;89.10
48994;DHT22;34804;49.214;12.276;2023-04-15T14:57:37;8.10;88.50
48994;DHT22;34804;49.214;12.276;2023-04-15T15:00:05;8.10;88.60
48994;DHT22;34804;49.214;12.276;2023-04-15T15:02:33;8.10;88.70
48994;DHT22;34804;49.214;12.276;2023-04-15T15:05:06;8.00;88.70
48994;DHT22;34804;49.214;12.276;2023-04-15T15:07:33;8.00;89.00
48994;DHT22;34804;49.214;12.276;2023-04-15T15:10:02;8.10;89.30
48994;DHT22;34804;49.214;12.276;2023-04-15T15:12:29;8.10;88.70
48994;DHT22;34804;49.214;12.276;2023-04-15T15:14:57;8.10;88.50
48994;DHT22;34804;49.214;12.276;2023-04-15T15:17:23;8.10;88.30
48994;DHT22;34804;49.214;12.276;2023-04-15T15:19:50;8.10;88.90
48994;DHT22;34804;49.214;12.276;2023-04-15T15:22:18;8.20;88.70
48994;DHT22;34804;49.214;12.276;2023-04-15T15:24:47;8.20;88.00
48994;DHT22;34804;49.214;12.276;2023-04-15T15:27:14;8.20;88.60
48994;DHT22;34804;49.214;12.276;2023-04-15T15:29:41;8.10;88.50
48994;DHT22;34804;49.214;12.276;2023-04-15T15:32:08;8.10;89.00
48994;DHT22;34804;49.214;12.276;2023-04-15T15:34:35;8.10;88.80
48994;DHT22;34804;49.214;12.276;2023-04-15T15:37:02;8.10;89.50
48994;DHT22;34804;49.214;12.276;2023-04-15T15:39:28;8.10;89.00
48994;DHT22;34804;49.214;12.276;2023-04-15T15:41:57;8.00;89.60
48994;DHT22;34804;49.214;12.276;2023-04-15T15:44:24;8.00;89.30
48994;DHT22;34804;49.214;12.276;2023-04-15T15:46:52;7.90;88.60
48994;DHT22;34804;49.214;12.276;2023-04-15T15:49:19;7.80;89.50
48994;DHT22;34804;49.214;12.276;2023-04-15T15:51:46;7.90;89.60
48994;DHT22;34804;49.214;12.276;2023-04-15T15:54:13;7.80;89.40